createdAt,value
2018-10-04T00:00:42.654Z,5.33
2018-10-04T00:03:12.523Z,5.07
2018-10-04T00:05:41.995Z,2.37
2018-10-04T00:08:11.369Z,5.03
2018-10-04T00:10:41.091Z,3.30
2018-10-04T00:13:10.793Z,2.03
2018-10-04T00:15:40.144Z,2.60
2018-10-04T00:18:09.845Z,3.40
2018-10-04T00:20:39.390Z,1.97
2018-10-04T00:23:09.084Z,3.73
2018-10-04T00:25:38.644Z,3.43
2018-10-04T00:28:08.139Z,3.17
2018-10-04T00:30:37.638Z,2.07
2018-10-04T00:33:07.692Z,2.47
2018-10-04T00:35:37.179Z,2.83
2018-10-04T00:38:06.794Z,2.87
2018-10-04T00:40:36.404Z,2.70
2018-10-04T00:44:09.046Z,5.50
2018-10-04T00:46:39.018Z,4.57
2018-10-04T00:49:08.645Z,3.30
2018-10-04T00:51:38.358Z,2.40
2018-10-04T00:54:08.364Z,4.50
2018-10-04T00:56:38.028Z,1.83
2018-10-04T00:59:07.373Z,2.67
2018-10-04T01:01:36.735Z,2.80
2018-10-04T01:04:06.073Z,4.73
2018-10-04T01:06:35.525Z,3.23
2018-10-04T01:09:06.522Z,3.07
2018-10-04T01:11:36.032Z,3.33
2018-10-04T01:14:05.624Z,5.07
2018-10-04T01:16:35.252Z,2.53
2018-10-04T01:19:04.934Z,5.00
2018-10-04T01:21:34.361Z,2.23
2018-10-04T01:24:08.761Z,2.90
2018-10-04T01:26:38.102Z,2.67
2018-10-04T01:29:07.783Z,2.87
2018-10-04T01:31:37.612Z,3.73
2018-10-04T01:34:07.022Z,1.50
2018-10-04T01:36:36.353Z,1.17
2018-10-04T01:39:06.675Z,4.30
2018-10-04T01:41:35.944Z,2.60
2018-10-04T01:44:05.508Z,4.57
2018-10-04T01:46:35.403Z,1.83
2018-10-04T01:49:04.702Z,1.00
2018-10-04T01:51:34.120Z,3.97
2018-10-04T01:54:03.529Z,7.17
2018-10-04T01:56:32.714Z,11.27
2018-10-04T01:59:02.031Z,6.40
2018-10-04T02:01:31.764Z,7.33
2018-10-04T02:04:01.133Z,5.97
2018-10-04T02:06:30.840Z,3.03
2018-10-04T02:09:00.549Z,2.97
2018-10-04T02:11:29.719Z,9.13
2018-10-04T02:13:59.069Z,2.53
2018-10-04T02:16:28.811Z,4.73
2018-10-04T02:18:58.203Z,4.20
2018-10-04T02:21:27.687Z,3.90
2018-10-04T02:23:57.306Z,4.67
2018-10-04T02:26:26.505Z,9.17
2018-10-04T02:28:55.897Z,5.43
2018-10-04T02:31:25.623Z,5.07
2018-10-04T02:33:55.094Z,2.60
2018-10-04T02:36:24.570Z,7.47
2018-10-04T02:38:54.263Z,5.30
2018-10-04T02:41:23.621Z,8.13
2018-10-04T02:43:52.961Z,6.80
2018-10-04T02:46:22.719Z,6.43
2018-10-04T02:48:52.067Z,6.87
2018-10-04T02:51:21.290Z,8.60
2018-10-04T02:53:50.792Z,5.73
2018-10-04T02:56:25.132Z,6.90
2018-10-04T02:58:54.679Z,6.83
2018-10-04T03:01:23.968Z,5.60
2018-10-04T03:03:53.345Z,4.57
2018-10-04T03:06:22.806Z,3.80
2018-10-04T03:08:52.146Z,5.33
2018-10-04T03:11:21.455Z,2.60
2018-10-04T03:13:51.099Z,4.43
2018-10-04T03:16:20.484Z,3.87
2018-10-04T03:18:50.084Z,8.37
2018-10-04T03:21:19.878Z,9.53
2018-10-04T03:23:49.669Z,3.90
2018-10-04T03:26:19.164Z,4.37
2018-10-04T03:28:48.772Z,5.77
2018-10-04T03:31:18.605Z,4.03
2018-10-04T03:33:47.789Z,2.23
2018-10-04T03:36:17.636Z,2.10
2018-10-04T03:38:47.564Z,3.00
2018-10-04T03:41:16.942Z,5.23
2018-10-04T03:43:46.720Z,4.00
2018-10-04T03:46:16.143Z,3.93
2018-10-04T03:48:45.474Z,3.67
2018-10-04T03:51:15.324Z,4.80
2018-10-04T03:53:44.741Z,4.03
2018-10-04T03:56:14.039Z,6.73
2018-10-04T03:58:43.873Z,5.07
2018-10-04T04:01:13.462Z,5.10
2018-10-04T04:03:42.969Z,2.20
2018-10-04T04:06:12.595Z,1.93
2018-10-04T04:08:42.118Z,4.10
2018-10-04T04:11:11.620Z,5.27
2018-10-04T04:13:41.516Z,4.27
2018-10-04T04:16:10.705Z,4.20
2018-10-04T04:18:40.891Z,4.97
2018-10-04T04:21:10.807Z,3.47
2018-10-04T04:23:56.083Z,3.77
2018-10-04T04:26:25.663Z,3.87
2018-10-04T04:28:54.922Z,6.60
2018-10-04T04:31:24.168Z,3.83
2018-10-04T04:33:53.697Z,3.00
2018-10-04T04:36:22.957Z,4.77
2018-10-04T04:38:52.387Z,4.87
2018-10-04T04:41:23.107Z,3.50
2018-10-04T04:43:52.570Z,5.40
2018-10-04T04:46:21.887Z,4.83
2018-10-04T04:48:51.577Z,3.80
2018-10-04T04:51:21.156Z,3.10
2018-10-04T04:53:50.183Z,3.63
2018-10-04T04:56:19.414Z,5.43
2018-10-04T04:58:48.470Z,6.03
2018-10-04T05:01:17.862Z,3.30
2018-10-04T05:03:47.188Z,6.80
2018-10-04T05:06:16.322Z,5.00
2018-10-04T05:08:45.955Z,10.97
2018-10-04T05:11:15.555Z,5.57
2018-10-04T05:13:45.011Z,3.80
2018-10-04T05:16:15.773Z,4.23
2018-10-04T05:18:45.032Z,6.33
2018-10-04T05:21:14.477Z,4.77
2018-10-04T05:23:43.986Z,9.53
2018-10-04T05:26:13.598Z,5.10
2018-10-04T05:28:43.169Z,5.37
2018-10-04T05:31:13.799Z,3.77
2018-10-04T05:33:43.527Z,12.50
2018-10-04T05:36:13.545Z,4.60
2018-10-04T05:38:43.515Z,5.80
2018-10-04T05:41:13.193Z,12.70
2018-10-04T05:43:42.719Z,11.93
2018-10-04T05:46:12.458Z,5.13
2018-10-04T05:48:42.422Z,4.47
2018-10-04T05:51:12.022Z,7.30
2018-10-04T05:53:41.992Z,7.93
2018-10-04T05:56:11.905Z,5.60
2018-10-04T05:58:41.383Z,17.03
2018-10-04T06:01:10.913Z,6.60
2018-10-04T06:03:40.536Z,6.67
2018-10-04T06:06:09.978Z,6.87
2018-10-04T06:08:39.559Z,7.20
2018-10-04T06:11:08.917Z,18.43
2018-10-04T06:13:38.416Z,9.60
2018-10-04T06:16:08.083Z,12.80
2018-10-04T06:18:37.533Z,11.37
2018-10-04T06:21:07.015Z,7.03
2018-10-04T06:23:36.978Z,4.80
2018-10-04T06:26:06.403Z,8.43
2018-10-04T06:28:36.021Z,12.73
2018-10-04T06:31:05.564Z,7.27
2018-10-04T06:33:34.892Z,12.80
2018-10-04T06:36:04.824Z,14.97
2018-10-04T06:38:34.375Z,11.37
2018-10-04T06:41:04.658Z,12.43
2018-10-04T06:43:34.306Z,13.07
2018-10-04T06:46:03.945Z,13.63
2018-10-04T06:48:33.267Z,9.60
2018-10-04T06:51:02.810Z,10.13
2018-10-04T06:53:32.409Z,16.40
2018-10-04T06:56:01.715Z,12.73
2018-10-04T06:58:31.200Z,13.03
2018-10-04T07:01:00.847Z,14.43
2018-10-04T07:03:30.185Z,2.93
2018-10-04T07:05:59.484Z,2.33
2018-10-04T07:08:28.989Z,6.67
2018-10-04T07:10:58.229Z,2.40
2018-10-04T07:13:27.685Z,4.07
2018-10-04T07:15:57.096Z,4.17
2018-10-04T07:18:26.480Z,2.50
2018-10-04T07:20:55.903Z,3.80
2018-10-04T07:23:25.570Z,3.03
2018-10-04T07:25:54.873Z,11.10
2018-10-04T07:28:24.096Z,12.57
2018-10-04T07:30:53.781Z,12.70
2018-10-04T07:33:23.250Z,8.80
2018-10-04T07:35:52.607Z,12.77
2018-10-04T07:38:22.077Z,14.67
2018-10-04T07:40:51.528Z,8.83
2018-10-04T07:43:21.023Z,17.00
2018-10-04T07:45:50.784Z,14.83
2018-10-04T07:48:20.187Z,18.53
2018-10-04T07:50:49.542Z,5.73
2018-10-04T07:53:19.239Z,4.80
2018-10-04T07:55:48.731Z,2.57
2018-10-04T07:58:18.350Z,5.20
2018-10-04T08:00:48.741Z,4.07
2018-10-04T08:03:18.348Z,3.00
2018-10-04T08:05:47.681Z,3.73
2018-10-04T08:08:17.181Z,4.47
2018-10-04T08:10:46.882Z,2.83
2018-10-04T08:13:16.217Z,3.43
2018-10-04T08:15:45.581Z,5.13
2018-10-04T08:18:15.071Z,4.00
2018-10-04T08:20:44.918Z,3.67
2018-10-04T08:23:14.714Z,9.03
2018-10-04T08:25:44.349Z,7.33
2018-10-04T08:28:13.931Z,3.53
2018-10-04T08:30:43.659Z,3.87
2018-10-04T08:33:13.128Z,4.07
2018-10-04T08:35:42.983Z,2.73
2018-10-04T08:38:12.626Z,7.83
2018-10-04T08:40:41.991Z,3.27
2018-10-04T08:43:11.410Z,9.23
2018-10-04T08:45:41.343Z,3.87
2018-10-04T08:48:10.673Z,4.47
2018-10-04T08:50:39.978Z,9.10
2018-10-04T08:55:44.507Z,7.73
2018-10-04T08:58:14.283Z,11.53
2018-10-04T09:00:44.022Z,5.10
2018-10-04T09:03:13.841Z,7.37
2018-10-04T09:05:43.485Z,3.70
2018-10-04T09:08:13.030Z,10.90
2018-10-04T09:10:42.892Z,5.60
2018-10-04T09:13:12.273Z,2.63
2018-10-04T09:15:41.956Z,10.90
2018-10-04T09:18:11.374Z,5.50
2018-10-04T09:20:41.102Z,12.93
2018-10-04T09:23:10.558Z,10.37
2018-10-04T09:25:40.754Z,6.23
2018-10-04T09:28:15.687Z,2.60
2018-10-04T09:30:50.284Z,6.50
2018-10-04T09:33:20.828Z,3.83
2018-10-04T09:35:50.112Z,6.47
2018-10-04T09:38:21.034Z,7.80
2018-10-04T09:40:50.957Z,7.27
2018-10-04T09:43:20.333Z,6.67
2018-10-04T09:45:49.736Z,6.70
2018-10-04T09:48:19.374Z,9.43
2018-10-04T09:50:48.703Z,5.67
2018-10-04T09:53:18.024Z,6.43
2018-10-04T09:55:52.403Z,4.93
2018-10-04T09:58:22.470Z,5.10
2018-10-04T10:00:56.823Z,3.60
2018-10-04T10:03:26.598Z,7.13
2018-10-04T10:05:56.282Z,5.63
2018-10-04T10:08:25.773Z,4.77
2018-10-04T10:10:55.164Z,7.67
2018-10-04T10:13:24.566Z,8.13
2018-10-04T10:15:53.586Z,5.83
2018-10-04T10:18:24.220Z,4.80
2018-10-04T10:20:53.873Z,6.97
2018-10-04T10:23:23.230Z,9.00
2018-10-04T10:25:52.911Z,6.50
2018-10-04T10:28:22.583Z,7.57
2018-10-04T10:30:51.952Z,7.07
2018-10-04T10:33:21.583Z,9.13
2018-10-04T10:35:51.215Z,7.53
2018-10-04T10:38:20.892Z,5.33
2018-10-04T10:40:50.491Z,8.00
2018-10-04T10:43:20.321Z,8.37
2018-10-04T10:45:50.183Z,9.23
2018-10-04T10:48:19.802Z,8.77
2018-10-04T10:50:49.421Z,9.83
2018-10-04T10:53:18.973Z,8.57
2018-10-04T10:55:48.490Z,13.20
2018-10-04T10:58:17.946Z,6.43
2018-10-04T11:00:47.415Z,7.07
2018-10-04T11:03:17.229Z,5.53
2018-10-04T11:05:46.780Z,4.77
2018-10-04T11:08:16.205Z,5.33
2018-10-04T11:10:45.838Z,5.40
2018-10-04T11:13:15.532Z,8.50
2018-10-04T11:15:44.775Z,4.90
2018-10-04T11:18:14.286Z,3.83
2018-10-04T11:20:44.141Z,3.17
2018-10-04T11:23:13.836Z,8.40
2018-10-04T11:25:43.392Z,4.73
2018-10-04T11:28:12.892Z,5.23
2018-10-04T11:30:42.706Z,6.67
2018-10-04T11:33:12.521Z,5.33
2018-10-04T11:35:42.359Z,5.43
2018-10-04T11:38:12.019Z,6.50
2018-10-04T11:40:42.695Z,13.07
2018-10-04T11:43:13.553Z,7.93
2018-10-04T11:45:44.638Z,9.53
2018-10-04T11:48:19.365Z,14.40
2018-10-04T11:50:49.112Z,5.93
2018-10-04T11:53:18.465Z,10.33
2018-10-04T11:55:47.705Z,8.93
2018-10-04T11:58:17.791Z,9.80
2018-10-04T12:00:47.400Z,12.30
2018-10-04T12:03:16.990Z,7.40
2018-10-04T12:05:46.641Z,7.97
2018-10-04T12:08:15.996Z,8.10
2018-10-04T12:10:45.547Z,9.13
2018-10-04T12:13:15.383Z,8.17
2018-10-04T12:15:45.172Z,8.43
2018-10-04T12:18:15.024Z,8.20
2018-10-04T12:20:44.900Z,7.77
2018-10-04T12:23:14.387Z,12.10
2018-10-04T12:25:43.988Z,11.13
2018-10-04T12:28:13.634Z,12.03
2018-10-04T12:30:43.522Z,10.03
2018-10-04T12:33:13.008Z,8.80
2018-10-04T12:35:42.956Z,12.40
2018-10-04T12:38:12.600Z,11.53
2018-10-04T12:40:42.377Z,9.70
2018-10-04T12:43:12.037Z,12.37
2018-10-04T12:45:41.498Z,9.77
2018-10-04T12:48:10.764Z,10.37
2018-10-04T12:50:40.447Z,8.73
2018-10-04T12:53:09.671Z,9.63
2018-10-04T12:55:39.102Z,6.83
2018-10-04T12:58:08.975Z,5.80
2018-10-04T13:00:38.251Z,10.33
2018-10-04T13:03:07.712Z,9.60
2018-10-04T13:05:37.781Z,6.73
2018-10-04T13:08:07.544Z,6.13
2018-10-04T13:10:37.205Z,6.37
2018-10-04T13:13:07.120Z,9.67
2018-10-04T13:15:36.679Z,8.00
2018-10-04T13:18:06.039Z,7.43
2018-10-04T13:20:42.635Z,19.17
2018-10-04T13:23:12.055Z,7.87
2018-10-04T13:25:41.604Z,7.03
2018-10-04T13:28:11.447Z,6.00
2018-10-04T13:30:40.728Z,9.83
2018-10-04T13:33:09.955Z,8.40
2018-10-04T13:35:39.636Z,14.87
2018-10-04T13:38:08.878Z,14.83
2018-10-04T13:40:38.610Z,10.00
2018-10-04T13:43:08.740Z,14.47
2018-10-04T13:45:38.368Z,13.60
2018-10-04T13:48:07.389Z,12.67
2018-10-04T13:50:36.744Z,14.73
2018-10-04T13:53:07.180Z,19.10
2018-10-04T13:55:37.249Z,15.37
2018-10-04T13:58:06.847Z,17.20
2018-10-04T14:00:36.359Z,19.37
2018-10-04T14:03:05.889Z,17.00
2018-10-04T14:05:35.404Z,16.47
2018-10-04T14:08:05.662Z,16.80
2018-10-04T14:10:35.505Z,22.83
2018-10-04T14:18:55.998Z,22.07
2018-10-04T14:21:25.919Z,19.60
2018-10-04T14:23:56.084Z,21.87
2018-10-04T14:26:26.508Z,20.93
2018-10-04T14:28:55.961Z,24.27
2018-10-04T14:31:25.923Z,21.67
2018-10-04T14:33:55.952Z,19.13
2018-10-04T14:36:25.940Z,19.60
2018-10-04T14:38:55.443Z,23.20
2018-10-04T14:41:25.554Z,28.87
2018-10-04T14:43:55.555Z,20.27
2018-10-04T14:46:25.658Z,21.50
2018-10-04T14:48:55.337Z,19.73
2018-10-04T14:51:24.666Z,20.43
2018-10-04T14:53:54.184Z,22.60
2018-10-04T14:56:23.926Z,21.37
2018-10-04T14:58:53.498Z,22.63
2018-10-04T15:01:23.198Z,30.83
2018-10-04T15:03:53.017Z,17.23
2018-10-04T15:06:23.001Z,28.17
2018-10-04T15:08:52.612Z,23.93
2018-10-04T15:11:22.772Z,19.07
2018-10-04T15:13:52.128Z,17.83
2018-10-04T15:16:22.749Z,18.63
2018-10-04T15:18:52.597Z,16.63
2018-10-04T15:21:22.543Z,24.20
2018-10-04T15:23:51.981Z,18.87
2018-10-04T15:26:21.669Z,24.80
2018-10-04T15:28:50.754Z,21.33
2018-10-04T15:31:20.290Z,18.67
2018-10-04T15:33:49.685Z,23.13
2018-10-04T15:36:19.293Z,23.23
2018-10-04T15:38:48.759Z,22.90
2018-10-04T15:41:18.321Z,16.70
2018-10-04T15:43:47.993Z,23.93
2018-10-04T15:46:17.634Z,24.50
2018-10-04T15:48:47.531Z,23.33
2018-10-04T15:51:16.806Z,22.73
2018-10-04T15:53:46.003Z,20.30
2018-10-04T15:56:16.293Z,20.80
2018-10-04T15:58:46.018Z,19.20
2018-10-04T16:01:15.730Z,22.73
2018-10-04T16:03:47.531Z,20.40
2018-10-04T16:06:16.781Z,18.57
2018-10-04T16:08:46.090Z,15.70
2018-10-04T16:11:16.087Z,22.37
2018-10-04T16:13:45.961Z,16.53
2018-10-04T16:16:15.182Z,18.70
2018-10-04T16:18:45.013Z,22.57
2018-10-04T16:21:14.875Z,20.47
2018-10-04T16:23:45.037Z,19.00
2018-10-04T16:26:14.605Z,21.63
2018-10-04T16:28:44.340Z,19.00
2018-10-04T16:31:14.000Z,17.87
2018-10-04T16:33:43.609Z,18.47
2018-10-04T16:36:13.170Z,16.60
2018-10-04T16:38:42.521Z,19.20
2018-10-04T16:41:12.768Z,16.07
2018-10-04T16:43:42.620Z,16.23
2018-10-04T16:46:11.947Z,21.03
2018-10-04T16:48:41.468Z,20.13
2018-10-04T16:51:11.415Z,16.83
2018-10-04T16:53:42.088Z,15.87
2018-10-04T16:56:11.441Z,16.30
2018-10-04T16:58:41.303Z,20.93
2018-10-04T17:01:11.018Z,19.13
2018-10-04T17:03:40.214Z,20.77
2018-10-04T17:06:10.338Z,15.67
2018-10-04T17:08:39.981Z,21.90
2018-10-04T17:11:09.372Z,18.53
2018-10-04T17:13:39.002Z,18.20
2018-10-04T17:16:09.076Z,25.47
2018-10-04T17:18:38.439Z,17.73
2018-10-04T17:21:08.404Z,15.90
2018-10-04T17:23:38.374Z,20.53
2018-10-04T17:26:08.132Z,16.03
2018-10-04T17:28:38.335Z,21.77
2018-10-04T17:31:07.739Z,19.87
2018-10-04T17:33:36.871Z,17.60
2018-10-04T17:36:07.440Z,18.13
2018-10-04T17:38:37.208Z,19.57
2018-10-04T17:41:07.509Z,18.90
2018-10-04T17:43:37.546Z,14.17
2018-10-04T17:46:07.241Z,21.23
2018-10-04T17:48:37.134Z,23.60
2018-10-04T17:51:06.941Z,21.27
2018-10-04T17:53:36.511Z,20.43
2018-10-04T17:56:07.363Z,19.33
2018-10-04T17:58:36.794Z,20.83
2018-10-04T18:01:07.819Z,18.33
2018-10-04T18:03:39.856Z,16.77
2018-10-04T18:06:10.162Z,15.23
2018-10-04T18:08:40.391Z,18.27
2018-10-04T18:11:09.672Z,15.90
2018-10-04T18:13:39.362Z,20.70
2018-10-04T18:16:09.664Z,13.13
2018-10-04T18:18:39.140Z,18.00
2018-10-04T18:21:09.239Z,15.97
2018-10-04T18:23:39.279Z,15.30
2018-10-04T18:26:08.530Z,15.47
2018-10-04T18:28:38.441Z,15.50
2018-10-04T18:31:07.949Z,14.10
2018-10-04T18:33:37.616Z,11.67
2018-10-04T18:36:07.386Z,10.00
2018-10-04T18:38:37.639Z,13.30
2018-10-04T18:41:07.839Z,14.33
2018-10-04T18:43:37.551Z,15.60
2018-10-04T18:46:07.486Z,13.87
2018-10-04T18:48:37.503Z,15.90
2018-10-04T18:51:08.302Z,19.03
2018-10-04T18:53:38.680Z,8.60
2018-10-04T18:56:09.955Z,13.37
2018-10-04T18:58:39.643Z,14.10
2018-10-04T19:01:09.599Z,17.97
2018-10-04T19:03:39.029Z,13.40
2018-10-04T19:06:09.358Z,14.90
2018-10-04T19:08:39.382Z,14.70
2018-10-04T19:11:09.352Z,9.83
2018-10-04T19:13:38.546Z,16.47
2018-10-04T19:16:07.905Z,19.63
2018-10-04T19:18:37.399Z,15.87
2018-10-04T19:21:07.241Z,18.77
2018-10-04T19:23:36.803Z,20.10
2018-10-04T19:26:06.612Z,18.00
2018-10-04T19:28:35.729Z,15.93
2018-10-04T19:31:05.060Z,17.20
2018-10-04T19:33:35.066Z,15.83
2018-10-04T19:36:04.289Z,16.50
2018-10-04T19:38:34.613Z,18.13
2018-10-04T19:41:04.296Z,15.87
2018-10-04T19:43:34.603Z,16.57
2018-10-04T19:46:05.562Z,13.03
2018-10-04T19:48:35.437Z,15.20
2018-10-04T19:51:04.693Z,15.50
2018-10-04T19:53:34.347Z,15.13
2018-10-04T19:56:04.235Z,13.53
2018-10-04T19:58:35.335Z,19.60
2018-10-04T20:01:04.784Z,12.90
2018-10-04T20:03:34.768Z,13.50
2018-10-04T20:06:05.194Z,16.03
2018-10-04T20:08:34.688Z,14.40
2018-10-04T20:11:04.701Z,14.00
2018-10-04T20:13:34.399Z,14.93
2018-10-04T20:16:05.418Z,12.87
2018-10-04T20:18:35.323Z,14.83
2018-10-04T20:21:05.923Z,14.60
2018-10-04T20:23:36.015Z,15.53
2018-10-04T20:26:06.040Z,13.03
2018-10-04T20:28:35.455Z,14.03
2018-10-04T20:31:05.480Z,16.67
2018-10-04T20:33:35.566Z,14.07
2018-10-04T20:36:06.611Z,13.83
2018-10-04T20:38:35.762Z,13.83
2018-10-04T20:41:05.633Z,11.80
2018-10-04T20:43:35.034Z,15.20
2018-10-04T20:46:04.999Z,15.30
2018-10-04T20:48:35.672Z,16.23
2018-10-04T20:51:06.468Z,15.07
2018-10-04T20:53:36.843Z,16.10
2018-10-04T20:56:07.181Z,18.23
2018-10-04T20:58:36.821Z,15.47
2018-10-04T21:01:06.975Z,17.87
2018-10-04T21:03:36.644Z,17.23
2018-10-04T21:06:06.841Z,17.47
2018-10-04T21:08:36.554Z,19.20
2018-10-04T21:11:06.329Z,17.57
2018-10-04T21:13:36.551Z,21.93
2018-10-04T21:16:07.592Z,17.83
2018-10-04T21:18:37.801Z,21.77
2018-10-04T21:21:08.773Z,21.23
2018-10-04T21:23:38.595Z,24.40
2018-10-04T21:26:08.666Z,17.43
2018-10-04T21:28:39.485Z,22.87
2018-10-04T21:31:09.411Z,20.63
2018-10-04T21:33:39.646Z,23.20
2018-10-04T21:36:10.123Z,25.67
2018-10-04T21:38:39.924Z,18.60
2018-10-04T21:41:10.417Z,19.83
2018-10-04T21:43:40.113Z,20.43
2018-10-04T21:46:09.749Z,23.03
2018-10-04T21:48:39.297Z,19.23
2018-10-04T21:51:09.339Z,24.37
2018-10-04T21:53:39.363Z,21.37
2018-10-04T21:56:08.639Z,20.43
2018-10-04T21:58:38.369Z,20.93
2018-10-04T22:01:08.259Z,21.47
2018-10-04T22:03:38.897Z,20.50
2018-10-04T22:06:08.907Z,15.80
2018-10-04T22:08:38.783Z,15.63
2018-10-04T22:11:08.329Z,22.17
2018-10-04T22:13:37.986Z,20.40
2018-10-04T22:16:08.442Z,20.60
2018-10-04T22:18:38.708Z,19.70
2018-10-04T22:21:08.390Z,22.27
2018-10-04T22:23:39.482Z,19.50
2018-10-04T22:26:09.190Z,20.70
2018-10-04T22:28:39.010Z,18.43
2018-10-04T22:31:08.800Z,22.10
2018-10-04T22:33:39.347Z,24.70
2018-10-04T22:36:09.890Z,22.00
2018-10-04T22:38:39.711Z,18.23
2018-10-04T22:41:09.131Z,21.73
2018-10-04T22:43:39.024Z,17.20
2018-10-04T22:46:09.034Z,23.97
2018-10-04T22:48:39.317Z,24.33
2018-10-04T22:51:09.125Z,22.70
2018-10-04T22:53:38.251Z,20.03
2018-10-04T22:56:08.617Z,22.60
2018-10-04T22:58:39.560Z,18.10
2018-10-04T23:01:09.899Z,20.00
2018-10-04T23:03:39.855Z,23.43
2018-10-04T23:06:09.335Z,24.43
2018-10-04T23:08:39.485Z,19.17
2018-10-04T23:11:10.184Z,24.10
2018-10-04T23:13:39.604Z,23.43
2018-10-04T23:16:09.558Z,25.40
2018-10-04T23:18:39.454Z,21.20
2018-10-04T23:21:09.553Z,22.50
2018-10-04T23:23:40.652Z,17.93
2018-10-04T23:26:10.415Z,19.93
2018-10-04T23:28:40.503Z,23.40
2018-10-04T23:31:10.149Z,20.17
2018-10-04T23:33:40.947Z,17.47
2018-10-04T23:36:11.823Z,22.50
2018-10-04T23:38:41.385Z,25.67
2018-10-04T23:41:11.566Z,25.30
2018-10-04T23:43:42.341Z,21.80
2018-10-04T23:46:11.887Z,17.07
2018-10-04T23:48:41.458Z,21.63
2018-10-04T23:51:11.061Z,22.87
2018-10-04T23:53:40.711Z,21.33
2018-10-04T23:56:11.302Z,25.33
2018-10-04T23:58:40.989Z,21.07
